Time;durP1;ratioP1;P1;durP2;ratioP2;P2;SDS_P1;SDS_P2;PMS_P1;PMS_P2;Temp;Humidity;BMP_temperature;BMP_pressure;BME280_temperature;BME280_humidity;BME280_pressure;Samples;Min_cycle;Max_cycle;Signal;HPM_P1;HPM_P2
2023/03/10 05:11:37;;;;;;;6.47;3.17;;;;;;;9.84;93.93;100319.00;5063394;27;2167007;-90
2023/03/10 05:14:02;;;;;;;5.63;3.13;;;;;;;9.96;93.69;100317.53;5114740;27;20075;-92
2023/03/10 05:16:28;;;;;;;6.93;5.05;;;;;;;10.10;93.26;100299.56;5114281;27;20027;-90
2023/03/10 05:18:53;;;;;;;11.02;4.95;;;;;;;10.20;92.33;100289.59;5130757;27;20480;-85
2023/03/10 05:21:20;;;;;;;8.25;4.55;;;;;;;10.34;91.47;100302.66;5114965;27;20133;-91
2023/03/10 05:23:46;;;;;;;11.77;7.85;;;;;;;10.47;90.46;100298.50;5076202;28;20034;-91
2023/03/10 05:26:11;;;;;;;8.18;5.50;;;;;;;10.48;89.73;100281.22;5105787;28;20028;-85
2023/03/10 05:28:37;;;;;;;11.20;5.70;;;;;;;10.62;89.34;100287.34;5088184;28;20060;-92
2023/03/10 05:31:10;;;;;;;8.73;4.85;;;;;;;10.70;88.34;100288.66;5065817;28;20107;-85
2023/03/10 05:33:36;;;;;;;8.15;6.10;;;;;;;10.71;87.78;100277.38;5106956;28;20054;-87
2023/03/10 05:36:09;;;;;;;11.32;4.63;;;;;;;10.78;87.76;100286.47;5079649;27;20065;-83
2023/03/10 05:38:34;;;;;;;12.43;4.30;;;;;;;10.87;87.39;100297.16;5072929;28;20451;-83
2023/03/10 05:41:00;;;;;;;10.82;6.18;;;;;;;10.85;86.91;100290.41;5051930;28;20031;-83
2023/03/10 05:43:25;;;;;;;16.67;7.38;;;;;;;11.01;86.58;100301.59;5068317;28;20032;-84
2023/03/10 05:45:55;;;;;;;11.48;6.45;;;;;;;10.99;86.28;100299.97;5052066;28;20028;-91
2023/03/10 05:48:21;;;;;;;7.78;4.82;;;;;;;11.03;86.47;100291.16;5069351;28;20060;-89
2023/03/10 05:51:04;;;;;;;8.77;5.40;;;;;;;11.16;85.82;100289.53;5069734;28;20075;-88
2023/03/10 05:53:30;;;;;;;12.52;6.05;;;;;;;11.31;87.05;100301.63;5070060;28;20103;-95
2023/03/10 05:55:56;;;;;;;11.95;6.30;;;;;;;11.27;85.87;100304.44;5077962;28;20038;-90
2023/03/10 05:58:22;;;;;;;13.88;7.68;;;;;;;11.34;85.21;100316.13;5034004;28;20040;-90
2023/03/10 06:00:47;;;;;;;13.98;8.10;;;;;;;11.41;84.34;100323.47;5058508;28;20028;-91
2023/03/10 06:03:13;;;;;;;8.00;5.45;;;;;;;11.34;82.87;100316.13;5068882;28;20037;-90
2023/03/10 06:05:38;;;;;;;7.15;4.85;;;;;;;11.22;82.31;100333.22;5068286;28;20036;-90
2023/03/10 06:08:23;;;;;;;5.32;3.45;;;;;;;11.27;82.27;100330.34;5085910;28;20078;-90
2023/03/10 06:10:49;;;;;;;9.38;5.70;;;;;;;11.21;83.04;100331.53;5084564;28;20493;-91
2023/03/10 06:13:15;;;;;;;5.03;3.25;;;;;;;11.31;82.63;100329.28;5083422;28;20085;-90
2023/03/10 06:15:40;;;;;;;5.78;3.72;;;;;;;11.29;82.03;100334.50;5049291;28;20116;-88
2023/03/10 06:18:05;;;;;;;7.30;3.33;;;;;;;11.17;81.47;100325.69;5085068;28;20497;-85
2023/03/10 06:20:31;;;;;;;6.68;3.85;;;;;;;11.10;82.57;100313.16;5067435;28;20059;-85
2023/03/10 06:22:56;;;;;;;6.15;3.90;;;;;;;11.13;82.00;100316.44;5055590;28;20082;-86
2023/03/10 06:25:22;;;;;;;8.98;4.75;;;;;;;11.23;82.35;100329.69;5018843;28;20109;-87
2023/03/10 06:27:47;;;;;;;8.45;4.60;;;;;;;11.19;82.21;100321.25;5041469;28;20036;-94
2023/03/10 06:30:14;;;;;;;5.80;4.18;;;;;;;11.19;81.56;100310.88;5038820;28;20497;-94
2023/03/10 06:32:39;;;;;;;7.55;4.10;;;;;;;11.30;81.96;100330.16;5039454;28;20045;-89
2023/03/10 06:35:05;;;;;;;7.95;4.60;;;;;;;11.33;82.84;100324.84;5038890;28;21006;-90
2023/03/10 06:37:30;;;;;;;9.32;4.97;;;;;;;11.45;81.83;100318.94;5053801;28;20025;-88
2023/03/10 06:39:56;;;;;;;10.10;5.15;;;;;;;11.55;81.95;100327.84;5028735;28;20049;-82
2023/03/10 06:42:21;;;;;;;15.35;6.88;;;;;;;11.67;81.76;100332.31;5036360;28;20025;-82
2023/03/10 06:44:47;;;;;;;9.75;6.60;;;;;;;11.64;81.89;100314.38;5053305;28;20397;-83
2023/03/10 06:47:12;;;;;;;13.45;6.97;;;;;;;11.71;81.27;100326.06;5037225;28;20028;-82
2023/03/10 06:49:38;;;;;;;10.57;6.05;;;;;;;11.77;81.33;100320.50;5054636;28;20037;-90
2023/03/10 06:52:04;;;;;;;13.60;7.30;;;;;;;11.73;79.81;100293.09;5034799;28;20510;-88
2023/03/10 06:54:29;;;;;;;12.90;6.80;;;;;;;11.83;79.78;100293.44;5053488;28;20107;-91
2023/03/10 06:56:54;;;;;;;16.27;8.68;;;;;;;11.94;79.18;100295.38;5054703;28;20020;-91
2023/03/10 06:59:20;;;;;;;16.52;7.43;;;;;;;12.10;79.23;100290.94;5072918;28;20232;-86
2023/03/10 07:01:45;;;;;;;11.75;7.35;;;;;;;12.15;79.66;100291.50;5054228;28;20036;-91
2023/03/10 07:04:11;;;;;;;17.58;6.03;;;;;;;12.14;79.49;100276.03;5037897;28;20029;-91
2023/03/10 07:06:37;;;;;;;9.20;5.82;;;;;;;12.34;78.00;100299.81;5053729;28;20028;-91
2023/03/10 07:09:03;;;;;;;8.40;5.90;;;;;;;12.40;77.89;100297.78;5036413;28;20024;-84
2023/03/10 07:11:28;;;;;;;18.00;6.25;;;;;;;12.49;77.24;100308.44;5053173;28;20044;-87
2023/03/10 07:13:54;;;;;;;9.43;4.28;;;;;;;12.52;76.65;100310.00;5036297;28;20071;-90
2023/03/10 07:16:20;;;;;;;8.23;5.40;;;;;;;12.51;76.79;100301.38;5053436;28;20040;-84
2023/03/10 07:18:45;;;;;;;8.80;5.43;;;;;;;12.57;77.14;100300.16;5036899;28;20028;-83
2023/03/10 07:21:12;;;;;;;10.70;5.95;;;;;;;12.59;76.56;100300.91;5052930;28;20025;-82
2023/03/10 07:23:38;;;;;;;7.75;4.28;;;;;;;12.71;76.04;100302.72;5046101;28;20116;-84
2023/03/10 07:26:06;;;;;;;8.10;4.70;;;;;;;12.83;76.37;100307.16;5035867;28;20107;-83
2023/03/10 07:28:32;;;;;;;7.22;4.88;;;;;;;12.97;75.70;100292.44;5070165;28;20033;-91
2023/03/10 07:31:01;;;;;;;5.93;3.80;;;;;;;12.98;75.23;100291.50;5036246;28;20116;-89
2023/03/10 07:33:27;;;;;;;6.45;4.10;;;;;;;13.09;76.69;100296.88;5038506;28;20691;-86
2023/03/10 07:35:52;;;;;;;6.93;4.03;;;;;;;13.03;76.10;100281.66;5047291;28;20060;-88
2023/03/10 07:38:18;;;;;;;8.88;5.20;;;;;;;13.08;75.74;100279.63;5035107;28;20041;-91
2023/03/10 07:40:43;;;;;;;11.45;6.28;;;;;;;13.30;75.53;100279.91;5037051;28;20028;-96
2023/03/10 07:43:09;;;;;;;13.65;4.60;;;;;;;13.21;76.03;100270.13;5053822;28;20031;-88
2023/03/10 07:45:36;;;;;;;7.93;5.50;;;;;;;13.33;76.48;100271.91;5051537;28;20020;-93
2023/03/10 07:48:01;;;;;;;7.28;4.70;;;;;;;13.36;76.62;100263.06;5037648;28;20028;-86
2023/03/10 07:50:27;;;;;;;7.50;5.20;;;;;;;13.41;76.72;100245.44;5032516;28;20029;-87
2023/03/10 07:52:53;;;;;;;9.35;4.93;;;;;;;13.62;76.46;100271.75;5048171;28;20025;-86
2023/03/10 07:55:19;;;;;;;6.80;4.40;;;;;;;13.69;75.95;100260.00;5034912;28;20029;-92
2023/03/10 07:57:45;;;;;;;4.97;2.95;;;;;;;13.87;75.15;100261.38;5052146;28;20029;-87
2023/03/10 08:00:11;;;;;;;5.65;3.75;;;;;;;13.83;74.33;100241.69;5021334;28;20065;-85
2023/03/10 08:02:36;;;;;;;7.43;3.55;;;;;;;13.99;73.23;100249.28;5052071;28;20474;-90
2023/03/10 08:05:02;;;;;;;7.45;3.88;;;;;;;14.06;72.61;100263.53;5070465;28;20040;-88
2023/03/10 08:07:28;;;;;;;5.55;4.35;;;;;;;13.74;72.45;100219.75;5037707;28;20020;-85
2023/03/10 08:09:53;;;;;;;10.38;5.43;;;;;;;13.87;73.14;100243.16;5069134;28;20056;-85
2023/03/10 08:12:19;;;;;;;11.07;5.85;;;;;;;13.90;73.75;100235.13;5051215;28;20111;-89
2023/03/10 08:14:45;;;;;;;6.70;4.38;;;;;;;13.93;73.65;100228.88;5038650;28;20079;-91
2023/03/10 08:17:10;;;;;;;7.30;4.68;;;;;;;13.99;73.95;100226.72;5032339;28;20075;-92
2023/03/10 08:19:36;;;;;;;4.85;3.38;;;;;;;14.01;73.70;100229.19;5028663;28;20032;-94
2023/03/10 08:22:02;;;;;;;7.20;3.28;;;;;;;14.02;73.95;100220.44;5035796;28;20036;-91
2023/03/10 08:24:27;;;;;;;7.38;3.45;;;;;;;14.09;73.69;100205.25;5052541;28;20497;-91
2023/03/10 08:26:52;;;;;;;5.88;3.05;;;;;;;14.11;73.97;100190.38;5032192;28;20044;-85
2023/03/10 08:29:18;;;;;;;3.63;2.75;;;;;;;14.29;74.16;100202.91;5069925;28;20500;-85
2023/03/10 08:31:43;;;;;;;7.70;3.75;;;;;;;14.24;73.64;100191.97;5031044;28;20142;-84
2023/03/10 08:34:09;;;;;;;6.45;3.45;;;;;;;14.40;74.20;100201.31;5065260;28;20081;-83
2023/03/10 08:36:34;;;;;;;5.75;2.92;;;;;;;14.27;73.04;100164.94;5031894;28;20116;-90
2023/03/10 08:39:01;;;;;;;4.15;2.67;;;;;;;14.47;73.17;100189.56;5025497;28;20472;-87
2023/03/10 08:41:28;;;;;;;6.43;2.90;;;;;;;14.67;73.19;100206.34;5031304;28;20033;-86
2023/03/10 08:43:54;;;;;;;4.28;2.95;;;;;;;14.76;72.32;100200.47;5032563;28;20082;-88
2023/03/10 08:46:20;;;;;;;3.85;2.05;;;;;;;14.82;71.31;100187.00;5033139;28;20470;-88
2023/03/10 08:48:46;;;;;;;3.58;2.40;;;;;;;14.84;71.94;100204.16;5039408;28;20017;-91
2023/03/10 08:51:12;;;;;;;4.53;2.50;;;;;;;14.90;71.72;100197.69;5032704;28;20039;-88
2023/03/10 08:53:37;;;;;;;4.10;2.38;;;;;;;14.91;70.68;100186.31;5033277;28;20110;-89
2023/03/10 08:56:04;;;;;;;5.70;2.45;;;;;;;15.01;70.62;100200.31;5031829;28;20413;-88
2023/03/10 08:58:29;;;;;;;4.68;2.70;;;;;;;15.12;70.39;100208.16;5031901;28;20410;-90
2023/03/10 09:00:55;;;;;;;6.47;2.65;;;;;;;15.12;69.71;100194.31;5033490;28;20044;-94
2023/03/10 09:03:21;;;;;;;7.03;3.63;;;;;;;15.17;69.74;100180.00;5014017;28;20056;-91
2023/03/10 09:05:46;;;;;;;4.13;2.85;;;;;;;15.26;69.43;100193.28;5016016;28;20033;-84
2023/03/10 09:08:12;;;;;;;4.07;2.17;;;;;;;15.26;70.25;100182.88;5043709;28;20544;-90
2023/03/10 09:10:37;;;;;;;5.85;3.17;;;;;;;15.28;70.03;100175.75;5032127;28;20053;-93
2023/03/10 09:13:03;;;;;;;6.55;2.97;;;;;;;15.37;70.36;100175.06;5032481;28;20025;-92
2023/03/10 09:15:28;;;;;;;3.58;2.60;;;;;;;15.43;69.58;100164.16;5050238;28;20033;-91
2023/03/10 09:17:54;;;;;;;4.97;2.17;;;;;;;15.50;69.64;100165.34;5050390;28;20028;-89
2023/03/10 09:20:24;;;;;;;3.45;2.13;;;;;;;15.57;69.34;100161.34;5039096;28;20049;-91
2023/03/10 09:22:53;;;;;;;3.80;2.20;;;;;;;15.69;68.94;100170.84;4998266;28;20028;-91
2023/03/10 09:25:19;;;;;;;3.10;2.22;;;;;;;15.69;68.40;100173.44;5021302;28;20029;-93
2023/03/10 09:27:44;;;;;;;10.48;5.70;;;;;;;15.69;68.03;100144.75;5047348;28;20014;-94
2023/03/10 09:30:10;;;;;;;6.75;3.65;;;;;;;15.86;67.46;100160.88;5009832;28;20042;-92
2023/03/10 09:32:36;;;;;;;6.07;2.00;;;;;;;15.79;67.35;100165.75;5031400;28;20433;-92
2023/03/10 09:35:01;;;;;;;6.78;2.63;;;;;;;15.89;68.02;100158.84;5030897;28;20048;-81
2023/03/10 09:37:27;;;;;;;3.83;2.25;;;;;;;15.95;68.19;100149.72;5030901;28;20025;-90
2023/03/10 09:39:53;;;;;;;4.38;2.50;;;;;;;15.91;67.69;100143.09;5018258;28;20039;-91
2023/03/10 09:42:37;;;;;;;5.07;2.20;;;;;;;15.98;68.01;100139.03;5050368;28;20024;-85
2023/03/10 09:45:02;;;;;;;5.43;2.55;;;;;;;15.97;68.40;100142.63;5015716;28;20468;-87
2023/03/10 09:47:51;;;;;;;2.90;2.08;;;;;;;15.94;68.19;100132.44;5048710;28;20029;-84
2023/03/10 09:50:39;;;;;;;4.35;2.65;;;;;;;15.98;68.16;100115.56;5052554;28;20055;-86
2023/03/10 09:53:18;;;;;;;3.33;2.67;;;;;;;15.96;68.13;100125.31;5050808;28;20032;-94
2023/03/10 09:55:44;;;;;;;6.03;3.45;;;;;;;15.97;68.22;100114.75;5052407;28;20389;-94
2023/03/10 09:58:29;;;;;;;3.80;3.05;;;;;;;15.97;68.23;100106.09;5038982;28;20165;-89
2023/03/10 10:00:54;;;;;;;5.40;3.95;;;;;;;16.06;67.47;100126.22;5034808;28;20580;-87
2023/03/10 10:03:31;;;;;;;5.35;2.50;;;;;;;15.95;67.12;100087.94;5034362;28;20032;-85
2023/03/10 10:05:57;;;;;;;3.03;2.25;;;;;;;16.03;67.30;100108.22;5031228;28;20438;-93
2023/03/10 10:08:43;;;;;;;3.03;1.67;;;;;;;16.07;67.26;100112.22;5051863;28;20387;-94
2023/03/10 10:11:13;;;;;;;5.20;3.58;;;;;;;16.04;67.92;100089.84;5033513;28;20067;-86
2023/03/10 10:13:39;;;;;;;6.78;4.35;;;;;;;16.01;67.50;100082.22;5021033;28;20378;-88
2023/03/10 10:16:13;;;;;;;3.85;2.42;;;;;;;16.11;67.36;100100.59;5038363;28;20074;-89
2023/03/10 10:18:41;;;;;;;4.65;2.60;;;;;;;16.04;67.31;100096.81;5056451;28;20508;-89
2023/03/10 10:21:39;;;;;;;5.10;3.78;;;;;;;16.04;67.33;100096.81;5039285;28;20033;-95
2023/03/10 10:24:05;;;;;;;5.78;2.63;;;;;;;16.08;66.94;100098.22;5056669;28;20059;-87
2023/03/10 10:26:30;;;;;;;6.72;2.72;;;;;;;16.09;67.33;100091.22;5043805;28;20502;-92
2023/03/10 10:28:57;;;;;;;5.25;2.63;;;;;;;16.11;66.90;100082.31;5028963;28;20105;-88
2023/03/10 10:31:25;;;;;;;5.28;3.13;;;;;;;16.33;65.33;100092.69;5042256;28;20028;-90
2023/03/10 10:34:09;;;;;;;4.72;2.83;;;;;;;16.29;65.79;100086.06;5036272;28;20032;-89
2023/03/10 10:36:36;;;;;;;6.35;2.88;;;;;;;16.25;65.44;100083.84;5062797;28;20596;-92
2023/03/10 10:39:03;;;;;;;4.88;2.85;;;;;;;16.07;65.64;100049.59;5007867;28;20525;-92
2023/03/10 10:41:31;;;;;;;5.20;2.42;;;;;;;16.19;65.05;100071.25;5053708;28;20025;-88
2023/03/10 10:44:08;;;;;;;5.00;2.85;;;;;;;16.11;64.86;100058.00;5026859;28;20041;-94
2023/03/10 10:46:33;;;;;;;8.13;2.75;;;;;;;16.17;64.76;100055.75;5021177;28;20029;-87
2023/03/10 10:49:04;;;;;;;9.10;5.80;;;;;;;16.18;65.80;100057.41;5042251;28;20056;-94
2023/03/10 10:51:31;;;;;;;4.53;3.25;;;;;;;16.19;65.56;100066.03;5033433;28;20029;-94
2023/03/10 10:53:57;;;;;;;8.35;4.65;;;;;;;16.12;66.29;100057.88;5051625;28;20120;-93
2023/03/10 10:56:23;;;;;;;3.97;2.78;;;;;;;16.13;66.02;100051.72;5017521;28;20021;-91
2023/03/10 10:59:05;;;;;;;4.68;2.97;;;;;;;16.06;66.59;100037.50;5054250;28;20036;-96
2023/03/10 11:02:05;;;;;;;3.60;2.65;;;;;;;16.06;66.13;100032.31;5027357;28;20024;-88
2023/03/10 11:04:43;;;;;;;2.97;1.67;;;;;;;16.02;66.80;100026.47;5006670;28;20075;-92
2023/03/10 11:07:20;;;;;;;5.50;2.20;;;;;;;16.06;67.10;100025.31;5036949;28;20139;-94
2023/03/10 11:09:46;;;;;;;3.03;1.92;;;;;;;16.18;65.61;100028.69;5035682;28;20474;-90
2023/03/10 11:12:33;;;;;;;3.45;1.65;;;;;;;16.15;66.24;100049.81;5036283;28;20090;-94
2023/03/10 11:15:23;;;;;;;3.28;1.90;;;;;;;16.08;68.22;100056.47;5037769;28;20048;-95
2023/03/10 11:18:14;;;;;;;5.70;2.70;;;;;;;15.98;69.65;100066.00;5052683;28;20025;-91
2023/03/10 11:20:42;;;;;;;3.85;2.53;;;;;;;15.95;71.51;100071.47;5051347;28;20029;-89
2023/03/10 11:23:28;;;;;;;4.40;2.63;;;;;;;15.78;71.39;100029.28;5049439;28;20029;-87
2023/03/10 11:26:26;;;;;;;5.18;2.90;;;;;;;15.95;73.43;100041.00;5051198;28;20048;-87
2023/03/10 11:29:10;;;;;;;5.18;3.05;;;;;;;15.84;74.44;100033.22;5012344;28;20103;-94
2023/03/10 11:31:54;;;;;;;3.80;2.53;;;;;;;15.72;75.52;100028.94;5052044;28;20032;-92
2023/03/10 11:37:55;;;;;;;5.38;3.22;;;;;;;15.66;76.34;100019.84;5039549;28;20043;-93
2023/03/10 11:40:38;;;;;;;4.68;3.03;;;;;;;15.58;77.84;100010.94;5009492;28;20094;-96
2023/03/10 11:43:29;;;;;;;8.75;3.38;;;;;;;15.43;78.27;100019.00;5033598;28;20106;-93
2023/03/10 11:45:55;;;;;;;9.40;3.45;;;;;;;15.33;79.18;100018.06;5050145;28;20502;-88
2023/03/10 11:48:55;;;;;;;4.45;2.88;;;;;;;15.24;79.18;100018.81;5016569;28;20037;-86
2023/03/10 11:51:30;;;;;;;6.15;3.17;;;;;;;15.16;80.22;100011.59;5036367;28;20083;-94
2023/03/10 11:53:57;;;;;;;7.47;3.97;;;;;;;15.26;81.82;100021.31;5033858;28;20032;-87
2023/03/10 11:56:23;;;;;;;6.82;4.68;;;;;;;15.30;81.20;100018.31;5016142;28;20032;-89
2023/03/10 11:58:51;;;;;;;9.50;5.25;;;;;;;15.22;81.48;100010.28;5022354;28;20060;-88
2023/03/10 12:01:42;;;;;;;8.18;4.40;;;;;;;15.33;80.89;100019.84;5033645;28;20024;-93
2023/03/10 12:04:29;;;;;;;6.55;3.47;;;;;;;15.28;81.08;100019.41;5044455;28;20037;-92
2023/03/10 12:07:07;;;;;;;11.65;4.82;;;;;;;15.29;80.83;100016.66;5045990;28;20064;-93
2023/03/10 12:09:40;;;;;;;8.30;3.90;;;;;;;15.40;83.49;100018.44;5044159;28;20028;-94
2023/03/10 12:12:08;;;;;;;8.55;4.70;;;;;;;15.37;81.60;100016.91;5031639;28;20029;-93
2023/03/10 12:14:33;;;;;;;10.70;6.28;;;;;;;15.35;81.30;100015.38;5034654;28;20497;-92
2023/03/10 12:16:59;;;;;;;12.15;7.05;;;;;;;15.22;81.96;100012.88;5031320;28;20040;-87
2023/03/10 12:19:25;;;;;;;13.55;8.00;;;;;;;15.21;82.17;100009.44;4999760;28;20112;-90
2023/03/10 12:22:23;;;;;;;12.70;6.65;;;;;;;15.18;83.15;100012.31;5001111;28;20033;-88
2023/03/10 12:24:49;;;;;;;22.02;7.22;;;;;;;15.11;81.27;100003.28;5032488;28;20025;-86
2023/03/10 12:27:14;;;;;;;16.23;8.80;;;;;;;14.95;82.26;99984.59;5031605;28;20477;-90
2023/03/10 12:29:41;;;;;;;13.63;7.13;;;;;;;15.00;82.85;99995.47;5015627;28;20021;-91
2023/03/10 12:32:45;;;;;;;11.40;6.25;;;;;;;14.97;83.52;100003.53;5045594;28;20548;-93
2023/03/10 12:35:40;;;;;;;10.00;6.82;;;;;;;14.89;84.12;100008.50;4985216;28;20153;-89
2023/03/10 12:38:44;;;;;;;10.88;7.43;;;;;;;14.84;84.00;99995.81;5018123;28;20501;-95
2023/03/10 12:41:10;;;;;;;15.82;8.82;;;;;;;14.79;83.98;100000.56;5013596;28;20119;-94
2023/03/10 12:43:54;;;;;;;13.15;6.75;;;;;;;14.67;85.18;100006.72;5011583;28;20453;-94
2023/03/10 12:46:24;;;;;;;9.10;5.70;;;;;;;14.42;86.19;99999.03;5031607;28;20026;-92
2023/03/10 12:49:04;;;;;;;6.72;4.70;;;;;;;14.35;86.09;99998.66;5012962;28;20112;-88
2023/03/10 12:51:30;;;;;;;7.60;5.45;;;;;;;14.41;86.27;99993.00;4998712;28;20029;-91
2023/03/10 12:54:22;;;;;;;10.57;5.43;;;;;;;14.28;87.14;100003.50;5031686;28;20024;-94
2023/03/10 12:57:21;;;;;;;7.30;4.40;;;;;;;14.27;88.46;99990.63;5035649;28;20025;-88
2023/03/10 13:00:15;;;;;;;8.32;5.10;;;;;;;14.10;88.59;99963.25;5051676;28;20028;-90
2023/03/10 13:02:48;;;;;;;13.38;5.60;;;;;;;14.10;88.13;99962.41;5049648;28;20027;-94
2023/03/10 13:05:23;;;;;;;;;;;;;;;14.27;87.90;99972.41;5040690;28;20498;-85
2023/03/10 13:07:51;;;;;;;6.07;3.70;;;;;;;14.17;88.25;99967.06;5053936;28;19912;-95
2023/03/10 13:10:23;;;;;;;7.32;4.95;;;;;;;14.19;88.64;99951.34;5039636;28;20490;-96
2023/03/10 13:12:50;;;;;;;;;;;;;;;14.32;88.97;99934.69;5020264;28;20024;-87
2023/03/10 13:15:33;;;;;;;6.75;4.28;;;;;;;14.26;89.61;99916.13;5054928;28;19912;-92
2023/03/10 13:18:19;;;;;;;10.90;5.55;;;;;;;14.18;89.45;99900.25;5052456;28;20032;-94
2023/03/10 13:20:45;;;;;;;6.80;5.60;;;;;;;14.01;89.57;99870.31;5038872;28;20029;-87
2023/03/10 13:23:43;;;;;;;13.73;7.75;;;;;;;14.05;90.48;99884.72;5036549;28;20029;-92
2023/03/10 13:26:14;;;;;;;16.00;8.85;;;;;;;14.05;90.73;99893.34;5019894;28;20032;-91
2023/03/10 13:28:56;;;;;;;15.65;8.65;;;;;;;14.00;90.72;99900.69;5036764;28;20024;-96
2023/03/10 13:31:29;;;;;;;16.40;8.07;;;;;;;13.84;90.20;99874.16;5037126;28;20052;-86
2023/03/10 13:33:55;;;;;;;12.55;8.10;;;;;;;13.98;90.21;99897.38;5041182;28;20032;-88
2023/03/10 13:36:45;;;;;;;10.63;6.43;;;;;;;13.89;90.23;99861.66;5040330;28;20024;-93
2023/03/10 13:39:21;;;;;;;17.15;8.38;;;;;;;13.93;90.64;99870.88;5041513;28;20035;-95
2023/03/10 13:41:52;;;;;;;13.82;7.25;;;;;;;13.92;90.61;99874.41;5040299;28;20031;-87
2023/03/10 13:44:28;;;;;;;10.93;6.32;;;;;;;13.78;91.21;99859.03;5036755;28;20032;-92
2023/03/10 13:46:59;;;;;;;9.27;5.85;;;;;;;13.60;91.38;99834.41;5036390;28;20040;-89
2023/03/10 13:49:27;;;;;;;9.35;5.18;;;;;;;13.83;91.68;99856.91;5037802;28;20032;-94
2023/03/10 13:52:06;;;;;;;7.70;5.20;;;;;;;13.76;91.81;99834.91;5046901;28;20033;-93
2023/03/10 13:54:36;;;;;;;11.15;5.88;;;;;;;13.81;91.50;99838.00;5038032;28;20024;-89
2023/03/10 13:57:07;;;;;;;7.95;5.32;;;;;;;13.86;91.27;99835.88;5067337;23;20141;-91
2023/03/10 13:59:33;;;;;;;14.47;5.23;;;;;;;13.82;91.28;99820.63;4995091;28;20555;-86
2023/03/10 14:01:59;;;;;;;7.90;4.22;;;;;;;13.81;91.38;99801.59;4977753;28;20036;-83
2023/03/10 14:04:48;;;;;;;9.07;4.35;;;;;;;13.92;91.31;99804.22;4961362;28;20515;-87
2023/03/10 14:07:17;;;;;;;7.88;3.92;;;;;;;13.97;89.37;99796.91;5009696;28;20054;-85
2023/03/10 14:09:43;;;;;;;5.07;4.05;;;;;;;13.91;90.00;99791.34;4977283;28;20558;-84
2023/03/10 14:12:09;;;;;;;9.35;3.70;;;;;;;13.79;89.92;99780.09;4976832;28;20022;-82
2023/03/10 14:14:37;;;;;;;9.40;5.28;;;;;;;13.79;89.69;99793.09;4976711;28;20034;-87
2023/03/10 14:17:04;;;;;;;9.32;4.05;;;;;;;13.46;89.50;99740.09;4977383;28;20027;-86
2023/03/10 14:19:46;;;;;;;10.52;6.10;;;;;;;13.66;89.40;99776.75;4976578;28;20034;-84
2023/03/10 14:22:39;;;;;;;7.78;4.47;;;;;;;13.75;89.54;99792.47;4960918;28;20125;-89
2023/03/10 14:25:15;;;;;;;7.25;4.00;;;;;;;13.79;88.65;99777.50;4997330;28;20030;-88
2023/03/10 14:27:42;;;;;;;5.55;3.60;;;;;;;13.72;88.42;99764.13;4960638;28;20145;-83
2023/03/10 14:30:26;;;;;;;9.77;3.83;;;;;;;13.75;89.57;99755.25;4976566;28;20030;-86
2023/03/10 14:32:52;;;;;;;6.85;3.88;;;;;;;13.62;90.24;99744.16;4958811;28;20432;-84
2023/03/10 14:35:22;;;;;;;7.97;4.53;;;;;;;13.72;90.29;99739.91;4992729;28;20046;-84
2023/03/10 14:37:51;;;;;;;7.55;4.40;;;;;;;13.75;90.07;99740.50;4976884;28;20102;-83
2023/03/10 14:40:17;;;;;;;6.68;4.55;;;;;;;13.85;91.33;99748.41;4976787;28;20053;-94
2023/03/10 14:42:43;;;;;;;11.60;5.35;;;;;;;13.64;90.98;99700.66;4976223;28;20038;-85
2023/03/10 14:45:30;;;;;;;7.28;4.20;;;;;;;13.83;90.87;99729.50;4992579;28;20469;-84
2023/03/10 14:47:56;;;;;;;8.40;4.13;;;;;;;13.80;91.56;99729.75;4977411;28;20026;-85
2023/03/10 14:50:22;;;;;;;7.13;5.28;;;;;;;13.78;90.92;99726.44;4992221;28;20480;-85
2023/03/10 14:52:48;;;;;;;9.15;5.65;;;;;;;13.82;91.13;99712.25;4976116;28;20038;-85
2023/03/10 14:55:13;;;;;;;12.70;6.75;;;;;;;13.95;90.80;99715.56;4976038;28;20452;-85
2023/03/10 14:57:39;;;;;;;7.30;5.15;;;;;;;14.09;90.52;99711.09;4991618;28;20054;-89
2023/03/10 15:00:10;;;;;;;7.90;5.30;;;;;;;14.10;89.97;99703.16;4976094;28;20018;-92
2023/03/10 15:02:35;;;;;;;9.90;5.18;;;;;;;14.19;90.01;99689.44;4991889;28;20058;-90
2023/03/10 15:05:00;;;;;;;11.15;4.40;;;;;;;14.53;89.43;99700.63;4975995;28;20065;-90
2023/03/10 15:07:26;;;;;;;8.27;5.18;;;;;;;14.77;88.74;99689.19;4992896;28;20026;-89
2023/03/10 15:09:52;;;;;;;12.68;6.80;;;;;;;14.92;87.15;99670.53;4992580;28;20513;-89
2023/03/10 15:12:17;;;;;;;14.63;5.85;;;;;;;15.01;86.20;99678.53;4993486;28;20030;-89
2023/03/10 15:14:45;;;;;;;8.30;6.45;;;;;;;14.92;85.77;99664.50;4992336;28;20030;-89
2023/03/10 15:17:11;;;;;;;11.40;5.22;;;;;;;14.97;86.39;99680.59;4992508;28;20527;-88
2023/03/10 15:19:36;;;;;;;7.25;4.20;;;;;;;14.87;85.02;99666.66;4976143;28;20026;-89
2023/03/10 15:22:02;;;;;;;15.18;5.88;;;;;;;14.83;84.74;99671.28;4976267;28;20034;-89
2023/03/10 15:24:27;;;;;;;8.05;5.25;;;;;;;14.85;85.75;99694.63;5008436;28;20472;-89
2023/03/10 15:26:53;;;;;;;9.60;5.75;;;;;;;14.62;86.10;99675.63;4975554;28;20030;-89
2023/03/10 15:29:18;;;;;;;8.43;4.90;;;;;;;14.69;86.26;99688.97;4975934;28;20038;-89
2023/03/10 15:31:44;;;;;;;7.18;4.32;;;;;;;14.69;86.69;99688.97;4975767;28;20484;-89
2023/03/10 15:34:09;;;;;;;9.50;5.65;;;;;;;14.58;87.07;99677.66;4991783;28;20495;-89
2023/03/10 15:36:35;;;;;;;8.85;5.85;;;;;;;14.63;87.23;99680.69;4975328;28;20027;-89
2023/03/10 15:39:00;;;;;;;10.98;6.75;;;;;;;14.62;87.78;99684.25;4991715;28;20030;-88
2023/03/10 15:41:26;;;;;;;18.92;10.50;;;;;;;14.54;87.66;99681.44;4991483;28;20030;-88
2023/03/10 15:43:52;;;;;;;16.00;9.05;;;;;;;14.55;87.82;99685.72;4991782;28;20026;-88
2023/03/10 15:46:17;;;;;;;10.07;6.57;;;;;;;14.56;87.70;99689.16;4991693;28;20040;-88
2023/03/10 15:48:42;;;;;;;11.20;6.85;;;;;;;14.60;87.48;99696.59;4975436;28;20504;-88
2023/03/10 15:51:16;;;;;;;10.38;6.05;;;;;;;14.50;87.08;99664.44;4991398;28;20081;-89
2023/03/10 15:53:42;;;;;;;13.63;6.05;;;;;;;14.50;87.95;99680.03;4991458;28;20034;-89
2023/03/10 15:56:07;;;;;;;8.75;5.75;;;;;;;14.53;88.16;99690.19;4990648;28;20133;-88
2023/03/10 15:58:33;;;;;;;8.77;5.18;;;;;;;14.53;88.62;99689.38;4991463;28;20026;-89
2023/03/10 16:00:59;;;;;;;9.23;5.88;;;;;;;14.46;88.46;99683.84;4991391;28;20455;-88
2023/03/10 16:03:24;;;;;;;9.65;5.43;;;;;;;14.48;88.53;99689.75;4991209;28;20083;-89
2023/03/10 16:05:50;;;;;;;10.82;6.35;;;;;;;14.41;89.04;99672.13;4991107;28;20531;-89
2023/03/10 16:08:17;;;;;;;8.77;5.60;;;;;;;14.46;89.34;99690.84;4974894;28;20030;-89
2023/03/10 16:10:53;;;;;;;8.27;6.10;;;;;;;14.37;89.27;99668.94;4974907;28;20419;-88
2023/03/10 16:13:18;;;;;;;11.73;7.45;;;;;;;14.45;89.32;99674.38;4991322;28;20023;-89
2023/03/10 16:15:44;;;;;;;16.67;7.47;;;;;;;14.36;88.92;99667.28;4974883;28;20041;-88
2023/03/10 16:18:09;;;;;;;12.57;8.32;;;;;;;14.26;89.52;99655.97;4990916;28;20453;-88
2023/03/10 16:20:35;;;;;;;15.60;7.50;;;;;;;14.40;89.38;99676.50;5007244;28;20030;-89
2023/03/10 16:23:00;;;;;;;13.38;8.38;;;;;;;14.27;89.85;99660.22;4991068;28;20037;-88
2023/03/10 16:25:26;;;;;;;17.42;10.40;;;;;;;14.30;89.52;99649.56;4974452;28;20031;-89
2023/03/10 16:27:51;;;;;;;17.17;9.68;;;;;;;14.36;89.62;99682.91;5007155;28;20484;-89
2023/03/10 16:30:17;;;;;;;16.27;9.82;;;;;;;14.27;89.52;99668.84;4990775;28;20026;-88
2023/03/10 16:32:44;;;;;;;14.63;8.98;;;;;;;14.13;89.59;99640.47;4990882;28;20057;-89
2023/03/10 16:35:10;;;;;;;13.10;8.63;;;;;;;14.23;89.43;99646.59;4974669;28;20022;-89
2023/03/10 16:37:35;;;;;;;14.25;10.02;;;;;;;14.11;89.58;99641.56;4990723;28;20030;-89
2023/03/10 16:40:01;;;;;;;13.93;8.95;;;;;;;14.09;89.69;99651.25;5006442;28;20037;-89
2023/03/10 16:42:26;;;;;;;16.95;11.65;;;;;;;14.18;89.38;99666.97;4974431;28;20476;-88
2023/03/10 16:44:55;;;;;;;16.17;10.55;;;;;;;14.06;89.73;99671.38;4990571;28;20444;-88
2023/03/10 16:47:21;;;;;;;22.70;13.10;;;;;;;13.87;90.05;99633.94;4990939;28;20076;-88
2023/03/10 16:49:46;;;;;;;26.60;12.95;;;;;;;14.01;89.53;99675.25;5006647;28;20026;-88
2023/03/10 16:52:12;;;;;;;19.70;12.23;;;;;;;13.95;89.38;99662.72;4990392;28;20030;-88
2023/03/10 16:54:37;;;;;;;21.08;12.88;;;;;;;13.93;89.41;99660.25;4991032;28;20037;-89